Time;durP1;ratioP1;P1;durP2;ratioP2;P2;SDS_P1;SDS_P2;PMS_P1;PMS_P2;Temp;Humidity;BMP_temperature;BMP_pressure;BME280_temperature;BME280_humidity;BME280_pressure;Samples;Min_cycle;Max_cycle;Signal;HPM_P1;HPM_P2
2021/10/12 00:02:07;;;;;;;52.85;25.00;;;;;;;6.64;100.00;99542.84;4976575;28;20118;-67
2021/10/12 00:04:33;;;;;;;55.72;26.10;;;;;;;6.56;100.00;99538.25;4973332;28;20404;-66
2021/10/12 00:06:59;;;;;;;68.18;27.70;;;;;;;6.66;100.00;99541.66;4977856;28;20026;-67
2021/10/12 00:09:24;;;;;;;65.25;26.92;;;;;;;6.62;100.00;99513.41;4985202;28;20030;-66
2021/10/12 00:11:52;;;;;;;55.83;26.40;;;;;;;6.67;100.00;99537.13;4974813;28;20574;-67
2021/10/12 00:14:18;;;;;;;51.50;25.80;;;;;;;6.62;100.00;99532.22;4974028;28;20504;-66
2021/10/12 00:16:43;;;;;;;51.78;24.55;;;;;;;6.60;100.00;99531.53;4973559;28;20035;-66
2021/10/12 00:19:09;;;;;;;51.58;24.92;;;;;;;6.57;100.00;99531.84;4985392;28;20038;-66
2021/10/12 00:21:34;;;;;;;49.85;24.83;;;;;;;6.51;100.00;99537.88;4991960;28;20034;-66
2021/10/12 00:24:00;;;;;;;45.97;22.88;;;;;;;6.46;100.00;99534.81;4974904;28;20072;-67
2021/10/12 00:26:25;;;;;;;45.53;23.67;;;;;;;6.36;100.00;99534.94;4973922;28;20042;-66
2021/10/12 00:28:50;;;;;;;46.40;23.90;;;;;;;6.30;100.00;99531.03;4987912;28;20038;-67
2021/10/12 00:31:16;;;;;;;45.90;23.95;;;;;;;6.32;100.00;99523.66;4991461;28;20031;-66
2021/10/12 00:33:41;;;;;;;37.63;21.13;;;;;;;6.30;100.00;99532.88;4982955;28;20070;-66
2021/10/12 00:36:06;;;;;;;45.05;22.08;;;;;;;6.21;100.00;99525.75;4975612;28;20031;-66
2021/10/12 00:38:32;;;;;;;45.88;23.38;;;;;;;6.26;100.00;99543.13;4975775;28;20389;-66
2021/10/12 00:40:59;;;;;;;42.90;22.77;;;;;;;6.23;100.00;99529.13;4975693;28;20062;-66
2021/10/12 00:43:27;;;;;;;47.13;23.90;;;;;;;6.27;100.00;99538.56;4974721;28;20027;-66
2021/10/12 00:45:56;;;;;;;51.60;25.48;;;;;;;6.31;100.00;99531.88;5001692;28;20105;-67
2021/10/12 00:48:21;;;;;;;53.85;25.58;;;;;;;6.29;100.00;99518.59;4986809;28;20374;-67
2021/10/12 00:50:46;;;;;;;67.07;28.10;;;;;;;6.36;100.00;99518.81;4976054;28;20034;-66
2021/10/12 00:53:12;;;;;;;61.30;27.25;;;;;;;6.28;100.00;99499.94;4975525;28;20092;-66
2021/10/12 00:55:39;;;;;;;57.78;26.70;;;;;;;6.34;100.00;99510.91;4974650;28;20035;-66
2021/10/12 00:58:09;;;;;;;57.55;25.90;;;;;;;6.33;100.00;99508.38;4989360;28;20055;-66
2021/10/12 01:00:35;;;;;;;60.75;26.48;;;;;;;6.39;100.00;99505.03;4975500;28;20034;-66
2021/10/12 01:03:00;;;;;;;53.10;26.00;;;;;;;6.39;100.00;99509.59;4975664;28;20511;-67
2021/10/12 01:05:25;;;;;;;47.15;24.52;;;;;;;6.39;100.00;99507.72;4974753;28;20498;-67
2021/10/12 01:07:51;;;;;;;51.47;25.42;;;;;;;6.35;100.00;99511.75;4987955;28;20033;-67
2021/10/12 01:10:17;;;;;;;47.92;24.52;;;;;;;6.31;100.00;99510.38;4986603;28;20054;-67
2021/10/12 01:12:43;;;;;;;47.42;24.35;;;;;;;6.28;100.00;99503.47;4990667;28;20078;-66
2021/10/12 01:15:09;;;;;;;48.25;25.85;;;;;;;6.31;100.00;99510.38;4997484;28;20073;-66
2021/10/12 01:17:35;;;;;;;53.50;25.60;;;;;;;6.25;100.00;99484.97;4977073;28;20027;-66
2021/10/12 01:20:06;;;;;;;49.97;24.05;;;;;;;6.43;100.00;99508.28;4987767;28;20515;-67
2021/10/12 01:22:32;;;;;;;47.13;24.30;;;;;;;6.29;100.00;99481.00;4998786;28;20396;-67
2021/10/12 01:24:57;;;;;;;48.30;25.13;;;;;;;6.44;100.00;99507.25;4976945;28;20031;-66
2021/10/12 01:27:23;;;;;;;51.75;25.10;;;;;;;6.45;100.00;99490.16;4983256;28;20030;-67
2021/10/12 01:29:49;;;;;;;53.15;25.88;;;;;;;6.59;100.00;99503.81;4987160;28;20031;-66
2021/10/12 01:32:14;;;;;;;49.20;24.85;;;;;;;6.65;100.00;99496.94;4986940;28;20033;-67
2021/10/12 01:34:40;;;;;;;48.95;23.17;;;;;;;6.75;100.00;99484.22;4993284;28;20033;-67
2021/10/12 01:37:05;;;;;;;49.20;23.90;;;;;;;6.95;100.00;99481.28;4993893;28;20031;-66
2021/10/12 01:39:31;;;;;;;48.17;23.35;;;;;;;6.98;100.00;99472.88;4986810;28;20045;-66
2021/10/12 01:41:56;;;;;;;44.00;21.45;;;;;;;6.89;100.00;99460.38;4986177;28;20054;-66
2021/10/12 01:44:21;;;;;;;44.17;22.40;;;;;;;6.82;100.00;99454.00;4975476;28;20089;-66
2021/10/12 01:46:47;;;;;;;40.45;21.83;;;;;;;6.92;100.00;99465.47;4973137;28;20035;-66
2021/10/12 01:49:12;;;;;;;47.10;22.10;;;;;;;6.93;100.00;99461.75;4995848;28;20030;-66
2021/10/12 01:51:38;;;;;;;53.30;22.42;;;;;;;6.92;100.00;99460.94;4970300;28;20469;-66
2021/10/12 01:54:17;;;;;;;48.33;22.45;;;;;;;6.83;100.00;99464.56;4984071;28;20516;-67
2021/10/12 01:56:43;;;;;;;48.03;21.55;;;;;;;6.87;100.00;99465.94;4974517;28;20027;-67
2021/10/12 01:59:08;;;;;;;50.72;22.52;;;;;;;6.87;100.00;99459.75;4975653;28;20046;-67
2021/10/12 02:01:33;;;;;;;52.97;23.33;;;;;;;6.66;100.00;99433.28;4999092;28;20092;-66
2021/10/12 02:03:59;;;;;;;47.25;20.38;;;;;;;6.84;100.00;99446.59;4974805;28;20038;-67
2021/10/12 02:06:24;;;;;;;43.53;21.83;;;;;;;6.80;100.00;99448.78;4976179;28;20058;-66
2021/10/12 02:08:49;;;;;;;47.28;23.23;;;;;;;6.80;100.00;99440.72;4975618;28;20030;-66
2021/10/12 02:11:14;;;;;;;48.78;22.80;;;;;;;6.89;100.00;99438.88;4974280;28;20022;-67
2021/10/12 02:13:40;;;;;;;45.33;22.75;;;;;;;6.78;100.00;99438.16;4973624;28;20500;-67
2021/10/12 02:16:05;;;;;;;40.55;22.48;;;;;;;6.82;100.00;99445.94;4973406;28;20034;-66
2021/10/12 02:18:30;;;;;;;47.00;22.98;;;;;;;6.74;100.00;99426.06;4975878;28;20054;-66
2021/10/12 02:20:56;;;;;;;43.05;22.83;;;;;;;6.85;100.00;99442.91;4973885;28;20034;-66
2021/10/12 02:23:21;;;;;;;34.90;20.35;;;;;;;6.92;100.00;99435.88;4974468;28;20430;-67
2021/10/12 02:25:46;;;;;;;40.55;23.73;;;;;;;6.92;100.00;99431.34;4972480;28;20038;-67
2021/10/12 02:28:12;;;;;;;42.72;22.17;;;;;;;6.91;100.00;99432.31;4973015;28;20541;-67
2021/10/12 02:30:37;;;;;;;38.38;20.80;;;;;;;6.95;100.00;99428.31;4978011;28;20579;-67
2021/10/12 02:33:03;;;;;;;40.50;22.10;;;;;;;7.02;100.00;99428.47;4974452;28;20026;-67
2021/10/12 02:35:29;;;;;;;37.30;20.90;;;;;;;7.07;100.00;99422.59;4978122;28;20120;-68
2021/10/12 02:37:55;;;;;;;41.15;21.58;;;;;;;7.03;100.00;99387.97;4990893;28;20046;-68
2021/10/12 02:40:21;;;;;;;42.90;21.92;;;;;;;7.07;100.00;99417.22;4991942;28;20038;-68
2021/10/12 02:42:46;;;;;;;41.03;22.52;;;;;;;7.02;100.00;99405.13;4983123;28;20026;-68
2021/10/12 02:45:12;;;;;;;42.08;22.42;;;;;;;6.86;100.00;99397.00;4996364;28;20031;-68
2021/10/12 02:47:37;;;;;;;41.33;23.08;;;;;;;6.90;100.00;99398.38;4995145;28;20488;-68
2021/10/12 02:50:05;;;;;;;43.10;22.88;;;;;;;6.95;100.00;99397.88;4990623;28;20085;-68
2021/10/12 02:52:30;;;;;;;44.13;22.40;;;;;;;7.12;100.00;99388.81;4975514;28;20055;-69
2021/10/12 02:54:56;;;;;;;43.45;21.75;;;;;;;7.02;100.00;99374.66;4975530;28;20023;-68
2021/10/12 02:57:22;;;;;;;39.40;21.38;;;;;;;7.21;100.00;99389.69;4973997;28;20038;-68
2021/10/12 02:59:47;;;;;;;34.75;20.27;;;;;;;7.19;100.00;99381.75;4973663;28;20027;-68
2021/10/12 03:02:13;;;;;;;39.10;21.95;;;;;;;7.05;100.00;99363.59;4988330;28;20366;-66
2021/10/12 03:04:41;;;;;;;42.38;23.10;;;;;;;7.08;100.00;99365.97;4973689;28;20047;-67
2021/10/12 03:07:07;;;;;;;49.67;26.30;;;;;;;6.98;100.00;99358.03;4983782;28;20041;-67
2021/10/12 03:09:32;;;;;;;48.50;25.33;;;;;;;6.87;100.00;99352.16;4991598;28;20038;-68
2021/10/12 03:11:57;;;;;;;48.28;24.83;;;;;;;6.89;100.00;99361.75;4991762;28;20105;-68
2021/10/12 03:14:23;;;;;;;49.33;24.92;;;;;;;6.92;100.00;99364.09;4993859;28;20038;-67
2021/10/12 03:16:48;;;;;;;49.25;24.90;;;;;;;6.98;100.00;99365.28;4991442;28;20033;-67
2021/10/12 03:19:15;;;;;;;50.55;25.00;;;;;;;7.05;100.00;99349.28;4990552;28;20031;-66
2021/10/12 03:21:48;;;;;;;49.88;25.15;;;;;;;7.15;100.00;99336.50;5007863;28;20058;-67
2021/10/12 03:24:13;;;;;;;48.28;24.70;;;;;;;7.23;100.00;99345.44;4991405;28;20023;-66
2021/10/12 03:26:39;;;;;;;51.10;24.15;;;;;;;7.29;100.00;99341.22;5004295;28;20041;-67
2021/10/12 03:29:05;;;;;;;47.97;24.15;;;;;;;7.29;100.00;99316.16;4986231;28;20037;-78
2021/10/12 03:31:30;;;;;;;47.83;25.50;;;;;;;7.23;100.00;99329.28;4978377;28;20134;-78
2021/10/12 03:33:55;;;;;;;47.22;24.48;;;;;;;7.22;100.00;99334.84;4994712;28;20050;-78
2021/10/12 03:36:21;;;;;;;40.28;21.95;;;;;;;7.24;100.00;99338.22;4988701;28;20018;-77
2021/10/12 03:38:46;;;;;;;45.35;22.35;;;;;;;7.19;100.00;99330.63;4973820;28;20069;-77
2021/10/12 03:41:12;;;;;;;39.88;21.48;;;;;;;7.10;100.00;99318.19;4971539;28;20481;-74
2021/10/12 03:43:37;;;;;;;42.78;21.60;;;;;;;7.10;100.00;99320.91;4963890;28;20023;-74
2021/10/12 03:46:02;;;;;;;45.17;21.77;;;;;;;7.19;100.00;99332.47;4972793;28;20034;-75
2021/10/12 03:48:28;;;;;;;41.25;21.10;;;;;;;7.21;100.00;99330.47;4971318;28;20023;-74
2021/10/12 03:50:53;;;;;;;43.15;21.15;;;;;;;7.21;100.00;99325.09;4972220;28;20065;-74
2021/10/12 03:53:19;;;;;;;39.15;20.83;;;;;;;7.16;100.00;99328.28;4991901;28;20039;-73
2021/10/12 03:55:44;;;;;;;45.38;23.40;;;;;;;7.29;100.00;99332.31;4973205;28;20093;-74
2021/10/12 03:58:09;;;;;;;40.67;23.15;;;;;;;7.25;100.00;99332.63;4971988;28;20030;-74
2021/10/12 04:00:34;;;;;;;41.55;23.05;;;;;;;7.24;100.00;99336.34;4974112;28;20519;-75
2021/10/12 04:03:00;;;;;;;44.40;23.08;;;;;;;7.32;100.00;99330.13;4976900;28;20114;-76
2021/10/12 04:05:26;;;;;;;39.92;22.02;;;;;;;7.19;100.00;99317.16;5009759;22;20044;-69
2021/10/12 04:07:51;;;;;;;41.10;21.65;;;;;;;7.19;100.00;99321.72;5008483;28;20085;-69
2021/10/12 04:10:16;;;;;;;36.55;21.10;;;;;;;7.17;100.00;99327.25;5002724;28;20030;-70
2021/10/12 04:12:42;;;;;;;42.50;22.17;;;;;;;7.31;100.00;99344.59;5003252;28;20025;-71
2021/10/12 04:15:08;;;;;;;43.40;22.05;;;;;;;7.37;100.00;99330.47;5004991;28;20440;-69
2021/10/12 04:17:33;;;;;;;40.42;21.73;;;;;;;7.27;100.00;99329.78;4989024;28;20029;-69
2021/10/12 04:19:58;;;;;;;40.92;22.25;;;;;;;7.28;100.00;99336.84;4987435;28;20030;-70
2021/10/12 04:22:23;;;;;;;42.80;22.80;;;;;;;7.32;100.00;99321.22;4990922;28;20030;-68
2021/10/12 04:24:49;;;;;;;44.40;21.83;;;;;;;7.34;100.00;99301.19;4991226;28;20027;-67
2021/10/12 04:27:15;;;;;;;45.42;23.80;;;;;;;7.57;100.00;99320.16;5000141;28;20768;-67
2021/10/12 04:29:40;;;;;;;40.63;20.48;;;;;;;7.52;100.00;99319.84;4989890;28;20031;-68
2021/10/12 04:32:09;;;;;;;37.70;20.60;;;;;;;7.45;100.00;99316.16;4999990;28;20021;-68
2021/10/12 04:34:34;;;;;;;40.88;21.85;;;;;;;7.32;100.00;99305.91;4997360;28;20161;-73
2021/10/12 04:36:59;;;;;;;46.03;22.90;;;;;;;7.29;100.00;99310.78;4996279;28;20061;-67
2021/10/12 04:39:25;;;;;;;43.70;22.50;;;;;;;6.97;100.00;99278.34;4980408;28;20026;-71
2021/10/12 04:41:51;;;;;;;43.10;23.50;;;;;;;7.26;100.00;99317.34;4993284;28;20117;-70
2021/10/12 04:44:17;;;;;;;45.47;25.52;;;;;;;7.27;100.00;99319.03;4991726;28;20109;-69
2021/10/12 04:46:42;;;;;;;46.35;23.88;;;;;;;7.16;100.00;99295.16;4989736;28;20022;-68
2021/10/12 04:49:08;;;;;;;41.60;23.33;;;;;;;7.15;100.00;99317.66;4999943;28;20124;-69
2021/10/12 04:51:33;;;;;;;38.88;21.63;;;;;;;7.24;100.00;99330.13;4976136;28;20027;-69
2021/10/12 04:53:58;;;;;;;45.47;23.65;;;;;;;7.17;100.00;99334.50;4998309;28;20026;-70
2021/10/12 04:56:24;;;;;;;41.65;22.67;;;;;;;6.86;100.00;99280.53;4998639;28;20077;-73
2021/10/12 04:58:50;;;;;;;46.55;23.98;;;;;;;7.19;100.00;99327.09;5000805;28;20072;-71
2021/10/12 05:01:15;;;;;;;49.65;24.90;;;;;;;7.18;100.00;99320.06;4995818;28;20069;-69
2021/10/12 05:03:40;;;;;;;43.65;23.30;;;;;;;7.09;100.00;99303.06;4987511;28;20101;-71
2021/10/12 05:06:06;;;;;;;50.75;24.38;;;;;;;7.15;100.00;99307.78;4994733;28;20032;-74
2021/10/12 05:08:31;;;;;;;42.58;22.10;;;;;;;7.22;100.00;99314.13;4991900;28;20026;-69
2021/10/12 05:10:56;;;;;;;46.70;24.42;;;;;;;7.18;100.00;99299.38;4992540;28;20145;-69
2021/10/12 05:13:22;;;;;;;46.85;24.58;;;;;;;7.40;100.00;99307.75;4992944;28;20029;-68
2021/10/12 05:15:48;;;;;;;48.33;24.98;;;;;;;7.62;100.00;99312.44;4994371;28;20400;-70
2021/10/12 05:18:19;;;;;;;46.92;25.30;;;;;;;7.54;100.00;99276.56;4987303;28;20034;-71
2021/10/12 05:20:46;;;;;;;48.72;24.25;;;;;;;7.48;100.00;99291.56;4992498;28;20450;-71
2021/10/12 05:23:12;;;;;;;45.42;23.83;;;;;;;7.49;100.00;99274.38;5000388;28;20034;-71
2021/10/12 05:25:38;;;;;;;47.85;22.95;;;;;;;7.68;100.00;99310.88;4986522;28;20022;-72
2021/10/12 05:28:04;;;;;;;45.47;22.95;;;;;;;7.74;100.00;99301.28;5004003;28;20022;-73
2021/10/12 05:30:29;;;;;;;43.17;22.70;;;;;;;7.61;100.00;99286.50;5004755;28;20032;-73
2021/10/12 05:32:55;;;;;;;42.60;22.98;;;;;;;7.58;100.00;99294.91;4994101;28;20030;-69
2021/10/12 05:35:20;;;;;;;46.00;22.95;;;;;;;7.75;100.00;99287.63;4993061;28;20403;-68
2021/10/12 05:37:45;;;;;;;44.78;22.92;;;;;;;7.64;100.00;99293.38;4991991;28;20061;-68
2021/10/12 05:40:11;;;;;;;42.63;22.60;;;;;;;7.63;100.00;99289.03;4992663;28;20030;-68
2021/10/12 05:42:37;;;;;;;45.40;23.25;;;;;;;7.62;100.00;99274.72;4993456;28;20038;-67
2021/10/12 05:45:02;;;;;;;48.92;23.58;;;;;;;7.58;100.00;99277.94;4992341;28;20037;-69
2021/10/12 05:47:27;;;;;;;49.65;25.90;;;;;;;7.63;100.00;99278.25;4988634;28;20478;-68
2021/10/12 05:49:53;;;;;;;50.90;24.90;;;;;;;7.73;100.00;99289.66;4985648;28;20029;-68
2021/10/12 05:52:21;;;;;;;47.05;24.55;;;;;;;7.77;100.00;99285.59;4980370;28;20080;-69
2021/10/12 05:54:54;;;;;;;53.63;24.38;;;;;;;7.78;100.00;99286.44;4988941;28;20400;-72
2021/10/12 05:57:21;;;;;;;47.88;24.90;;;;;;;7.72;100.00;99268.28;4985193;28;20026;-71
2021/10/12 05:59:46;;;;;;;50.42;25.73;;;;;;;7.83;100.00;99279.53;4986584;28;20023;-67
2021/10/12 06:02:12;;;;;;;47.72;25.48;;;;;;;7.82;100.00;99282.38;5000267;28;20026;-69
2021/10/12 06:04:38;;;;;;;53.08;26.33;;;;;;;7.74;100.00;99277.03;4993440;28;20029;-68
2021/10/12 06:07:03;;;;;;;56.83;27.33;;;;;;;7.59;100.00;99255.34;4992736;28;20030;-73
2021/10/12 06:09:28;;;;;;;57.03;27.30;;;;;;;7.74;100.00;99288.63;4991033;28;20394;-68
2021/10/12 06:11:53;;;;;;;52.00;26.77;;;;;;;7.72;100.00;99290.66;4987452;28;20492;-67
2021/10/12 06:14:19;;;;;;;63.30;27.60;;;;;;;7.69;100.00;99291.00;4984301;28;20030;-67
2021/10/12 06:16:44;;;;;;;54.47;26.08;;;;;;;7.69;100.00;99282.94;4992995;28;20547;-68
2021/10/12 06:19:09;;;;;;;52.92;25.33;;;;;;;7.62;100.00;99263.94;4992610;28;20037;-76
2021/10/12 06:21:35;;;;;;;50.05;26.23;;;;;;;7.88;100.00;99289.75;4994462;28;20080;-74
2021/10/12 06:24:00;;;;;;;46.30;24.98;;;;;;;7.96;100.00;99281.66;5001912;28;20117;-67
2021/10/12 06:26:25;;;;;;;51.20;25.10;;;;;;;7.76;100.00;99256.16;4982478;28;20658;-73
2021/10/12 06:28:52;;;;;;;49.88;24.75;;;;;;;7.79;100.00;99264.72;4999998;28;20403;-74
2021/10/12 06:31:17;;;;;;;53.90;23.70;;;;;;;7.94;100.00;99285.53;4992225;28;20041;-73
2021/10/12 06:33:42;;;;;;;53.53;25.30;;;;;;;7.86;100.00;99286.44;4996583;28;20026;-73
2021/10/12 06:36:08;;;;;;;52.10;26.15;;;;;;;7.89;100.00;99296.84;4992630;28;20113;-72
2021/10/12 06:38:33;;;;;;;50.35;24.38;;;;;;;7.78;100.00;99272.97;4990955;28;20022;-74
2021/10/12 06:40:58;;;;;;;48.53;24.85;;;;;;;7.82;100.00;99277.84;5007983;28;20034;-73
2021/10/12 06:43:24;;;;;;;50.83;26.30;;;;;;;7.98;100.00;99290.41;4991565;28;20023;-73
2021/10/12 06:45:49;;;;;;;56.53;25.58;;;;;;;7.98;100.00;99300.34;4992157;28;20028;-72
2021/10/12 06:48:14;;;;;;;49.92;25.83;;;;;;;7.72;100.00;99273.66;4988280;28;20033;-74
2021/10/12 06:50:40;;;;;;;55.13;26.50;;;;;;;7.79;100.00;99290.81;4998462;28;20475;-71
2021/10/12 06:53:05;;;;;;;54.50;27.05;;;;;;;7.76;100.00;99286.63;4994675;28;20054;-71
2021/10/12 06:55:31;;;;;;;55.38;26.67;;;;;;;7.91;100.00;99289.41;4992232;28;20073;-71
2021/10/12 06:57:56;;;;;;;47.95;24.15;;;;;;;7.82;100.00;99277.00;4990673;28;20031;-72
2021/10/12 07:00:22;;;;;;;51.20;26.30;;;;;;;7.81;100.00;99276.16;4990457;28;20040;-72
2021/10/12 07:02:47;;;;;;;54.53;26.90;;;;;;;7.97;100.00;99295.97;5001005;28;20026;-73
2021/10/12 07:05:14;;;;;;;57.53;27.15;;;;;;;7.54;100.00;99220.88;5001164;28;20099;-74
2021/10/12 07:07:40;;;;;;;62.78;26.23;;;;;;;7.79;100.00;99261.19;5006102;28;20027;-74
2021/10/12 07:10:07;;;;;;;61.88;28.05;;;;;;;7.85;100.00;99268.56;4992024;28;20475;-76
2021/10/12 07:12:33;;;;;;;60.88;27.50;;;;;;;8.04;100.00;99288.84;4999804;28;20025;-75
2021/10/12 07:14:59;;;;;;;63.88;28.20;;;;;;;7.79;100.00;99262.03;5011867;28;20029;-72
2021/10/12 07:17:24;;;;;;;59.90;27.50;;;;;;;7.75;100.00;99252.59;5011550;28;20045;-75
2021/10/12 07:19:49;;;;;;;60.50;28.60;;;;;;;7.88;100.00;99271.75;4992638;28;20026;-75
2021/10/12 07:22:15;;;;;;;54.47;25.88;;;;;;;7.99;100.00;99284.03;4993183;28;20121;-73
2021/10/12 07:24:40;;;;;;;52.67;26.95;;;;;;;7.76;100.00;99231.91;4990015;28;20088;-66
2021/10/12 07:27:08;;;;;;;52.83;25.55;;;;;;;8.24;100.00;99291.97;4987951;28;20041;-67
2021/10/12 07:29:34;;;;;;;53.00;25.23;;;;;;;8.35;100.00;99288.88;4973315;28;20082;-67
2021/10/12 07:31:59;;;;;;;55.95;25.23;;;;;;;8.31;100.00;99301.03;4977426;28;20030;-67
2021/10/12 07:34:24;;;;;;;48.92;25.13;;;;;;;8.28;100.00;99302.25;4988066;28;20080;-67
2021/10/12 07:36:50;;;;;;;49.03;24.98;;;;;;;8.28;100.00;99301.41;4988318;28;20022;-67
2021/10/12 07:39:15;;;;;;;47.03;24.75;;;;;;;8.27;100.00;99295.16;4988247;28;20084;-67
2021/10/12 07:41:40;;;;;;;45.88;24.08;;;;;;;8.27;100.00;99303.22;4989351;28;20058;-67
2021/10/12 07:44:06;;;;;;;42.92;22.63;;;;;;;8.26;100.00;99300.72;4988845;28;20037;-66
2021/10/12 07:46:33;;;;;;;51.25;23.83;;;;;;;8.16;100.00;99292.03;4987791;28;20710;-67
2021/10/12 07:48:58;;;;;;;49.83;23.30;;;;;;;8.24;100.00;99300.91;4984266;28;20038;-67
2021/10/12 07:51:28;;;;;;;51.90;24.38;;;;;;;8.27;100.00;99299.69;4989240;28;20029;-67
2021/10/12 07:53:56;;;;;;;49.22;23.95;;;;;;;8.29;100.00;99301.22;4988777;28;20148;-67
2021/10/12 07:56:36;;;;;;;42.60;21.80;;;;;;;8.37;100.00;99303.03;4988937;28;20554;-68
2021/10/12 07:59:07;;;;;;;47.38;21.52;;;;;;;8.41;100.00;99284.66;4990277;28;20152;-67
2021/10/12 08:01:33;;;;;;;53.38;24.90;;;;;;;8.52;100.00;99285.09;4991820;28;20070;-67
2021/10/12 08:04:00;;;;;;;44.53;22.45;;;;;;;8.76;100.00;99283.25;4990727;28;20030;-67
2021/10/12 08:06:25;;;;;;;43.53;22.08;;;;;;;9.06;100.00;99283.34;4991531;28;20095;-67
2021/10/12 08:08:51;;;;;;;44.25;21.55;;;;;;;9.36;100.00;99268.06;4988237;28;20033;-67
2021/10/12 08:11:17;;;;;;;41.33;20.83;;;;;;;9.46;100.00;99271.34;4989551;28;20022;-68
2021/10/12 08:13:44;;;;;;;37.00;19.98;;;;;;;9.74;100.00;99260.72;4992563;28;20748;-67
2021/10/12 08:16:10;;;;;;;37.03;20.50;;;;;;;9.99;100.00;99269.38;4992036;28;20053;-67
2021/10/12 08:18:36;;;;;;;32.28;18.77;;;;;;;10.13;100.00;99259.56;4991312;28;20070;-66
2021/10/12 08:21:01;;;;;;;32.08;17.42;;;;;;;10.45;98.59;99262.88;4991035;28;20742;-67
2021/10/12 08:23:27;;;;;;;29.67;17.55;;;;;;;10.42;97.40;99260.56;4991092;28;20026;-68
2021/10/12 08:25:52;;;;;;;33.47;17.05;;;;;;;10.04;98.16;99261.53;4990788;28;20034;-67
2021/10/12 08:28:17;;;;;;;31.08;16.67;;;;;;;10.30;97.31;99258.34;4987366;28;20023;-66
2021/10/12 08:30:43;;;;;;;31.48;16.80;;;;;;;10.23;97.48;99246.59;4989982;28;20034;-66
2021/10/12 08:33:09;;;;;;;38.28;17.73;;;;;;;10.30;97.76;99266.47;4991691;28;20030;-67
2021/10/12 08:35:34;;;;;;;36.55;18.20;;;;;;;10.24;98.00;99255.53;4992147;28;20034;-67
2021/10/12 08:38:00;;;;;;;32.30;16.95;;;;;;;10.34;96.59;99260.69;4989632;28;20033;-67
2021/10/12 08:40:26;;;;;;;29.65;16.48;;;;;;;10.62;96.70;99249.97;4986923;28;20040;-68
2021/10/12 08:42:53;;;;;;;32.28;16.10;;;;;;;10.58;94.64;99235.97;4991657;28;20034;-68
2021/10/12 08:45:20;;;;;;;32.30;17.17;;;;;;;10.46;95.08;99246.47;4991229;28;20038;-67
2021/10/12 08:47:46;;;;;;;34.63;18.02;;;;;;;10.54;95.38;99237.41;4978642;28;20038;-66
2021/10/12 08:50:15;;;;;;;29.45;17.08;;;;;;;10.32;95.14;99236.50;4982350;28;20026;-67
2021/10/12 08:52:41;;;;;;;32.53;16.58;;;;;;;10.40;95.98;99235.56;4989736;28;20503;-67
2021/10/12 08:55:07;;;;;;;27.90;15.15;;;;;;;10.54;96.41;99245.50;4990136;28;20037;-68
2021/10/12 08:57:38;;;;;;;28.80;14.90;;;;;;;10.44;96.05;99212.53;4983561;28;20492;-67
2021/10/12 09:00:15;;;;;;;30.08;15.27;;;;;;;10.71;95.96;99255.03;4991038;28;20037;-67
2021/10/12 09:03:45;;;;;;;28.55;15.38;;;;;;;10.71;96.24;99240.66;4991084;28;20041;-67
2021/10/12 09:05:55;;;;;;;28.33;14.73;;;;;;;10.49;95.48;99247.94;4986704;28;20053;-66
2021/10/12 09:08:30;;;;;;;29.85;15.70;;;;;;;10.59;94.36;99240.34;4983418;28;20060;-68
2021/10/12 09:10:57;;;;;;;27.25;14.15;;;;;;;10.48;94.67;99244.41;4987538;28;20849;-67
2021/10/12 09:13:24;;;;;;;30.30;15.27;;;;;;;10.47;95.57;99229.19;4990910;28;20027;-67
2021/10/12 09:16:02;;;;;;;27.67;15.45;;;;;;;10.56;96.22;99229.06;4991490;28;20134;-68
2021/10/12 09:18:46;;;;;;;40.35;16.00;;;;;;;10.45;96.72;99235.81;4988669;28;20026;-68
2021/10/12 09:21:35;;;;;;;33.65;16.38;;;;;;;10.34;98.38;99233.63;4990328;28;20046;-68
2021/10/12 09:24:08;;;;;;;36.00;17.20;;;;;;;10.39;98.51;99217.66;4990798;28;20027;-67
2021/10/12 09:26:48;;;;;;;34.75;18.50;;;;;;;10.27;99.12;99220.88;4987851;28;20081;-67
2021/10/12 09:29:24;;;;;;;38.30;17.98;;;;;;;10.31;99.35;99208.63;4985286;28;20026;-66
2021/10/12 09:31:50;;;;;;;35.20;16.52;;;;;;;10.44;99.01;99191.72;4974100;28;20038;-66
2021/10/12 09:34:18;;;;;;;31.98;15.20;;;;;;;10.65;97.69;99200.88;4975564;28;20031;-66
2021/10/12 09:36:46;;;;;;;27.38;14.90;;;;;;;10.72;98.37;99193.66;4985628;28;20052;-67
2021/10/12 09:39:14;;;;;;;30.25;14.05;;;;;;;10.35;98.69;99192.03;4988580;28;20029;-66
2021/10/12 09:41:44;;;;;;;29.48;13.95;;;;;;;10.18;99.08;99181.41;4993980;28;20033;-67
2021/10/12 09:44:18;;;;;;;21.60;12.40;;;;;;;10.27;99.52;99191.13;4993320;28;20027;-66
2021/10/12 09:46:53;;;;;;;20.42;11.27;;;;;;;10.12;99.99;99184.91;4992773;28;20022;-66
2021/10/12 09:49:19;;;;;;;15.27;8.70;;;;;;;10.13;99.27;99186.56;4993537;28;20031;-66
2021/10/12 09:51:57;;;;;;;20.27;8.40;;;;;;;10.08;99.18;99189.00;4993647;28;20026;-66
2021/10/12 09:54:23;;;;;;;19.88;8.68;;;;;;;9.98;100.00;99167.72;4990144;28;20514;-72
2021/10/12 09:56:49;;;;;;;19.98;8.60;;;;;;;9.73;100.00;99164.47;4989593;28;20399;-72
2021/10/12 09:59:16;;;;;;;19.92;9.10;;;;;;;9.60;100.00;99172.44;4995058;28;20029;-70
2021/10/12 10:01:44;;;;;;;15.65;8.02;;;;;;;9.86;100.00;99170.06;4997001;28;20032;-70
2021/10/12 10:04:10;;;;;;;18.55;8.43;;;;;;;9.97;100.00;99167.88;4992903;28;20022;-71
2021/10/12 10:06:39;;;;;;;15.25;8.07;;;;;;;10.01;100.00;99174.59;5202907;23;20041;-68
2021/10/12 10:09:04;;;;;;;25.25;8.20;;;;;;;10.25;99.94;99171.53;5026281;28;20049;-74
2021/10/12 10:11:32;;;;;;;14.85;8.18;;;;;;;10.53;98.43;99181.59;5046041;28;20453;-74
2021/10/12 10:13:58;;;;;;;14.05;8.35;;;;;;;10.88;96.72;99171.72;5047885;28;20033;-72
2021/10/12 10:16:25;;;;;;;15.77;7.90;;;;;;;11.15;94.54;99161.91;5029935;28;20026;-72
2021/10/12 10:18:51;;;;;;;13.02;7.65;;;;;;;11.35;93.16;99153.91;5014250;28;20076;-72
2021/10/12 10:21:17;;;;;;;22.23;9.10;;;;;;;11.58;90.44;99156.31;5022362;28;20162;-75
2021/10/12 10:24:02;;;;;;;13.27;6.50;;;;;;;11.86;87.65;99163.53;5009818;28;20100;-75
2021/10/12 10:26:32;;;;;;;11.57;6.25;;;;;;;11.53;88.69;99153.38;5014531;28;20030;-72
2021/10/12 10:29:22;;;;;;;14.85;7.25;;;;;;;11.67;89.44;99143.44;4997239;28;20033;-74
2021/10/12 10:31:52;;;;;;;14.52;6.53;;;;;;;11.44;89.45;99143.72;5021320;28;20057;-71
2021/10/12 10:34:40;;;;;;;11.90;6.22;;;;;;;11.59;89.76;99141.72;5040243;28;20037;-73
2021/10/12 10:37:17;;;;;;;14.23;6.33;;;;;;;11.65;89.59;99140.06;5045887;28;20028;-74
2021/10/12 10:39:52;;;;;;;11.93;6.85;;;;;;;11.56;90.09;99141.31;5028701;28;20125;-71
2021/10/12 10:42:26;;;;;;;12.63;6.72;;;;;;;11.45;90.23;99137.28;5028952;28;20030;-73
2021/10/12 10:45:02;;;;;;;14.77;6.70;;;;;;;10.88;93.11;99133.81;5026321;28;20021;-73
2021/10/12 10:47:42;;;;;;;14.63;5.82;;;;;;;11.08;90.10;99133.09;5024593;28;20025;-74
2021/10/12 10:50:25;;;;;;;11.07;5.20;;;;;;;11.07;89.27;99120.59;5021805;28;20029;-74
2021/10/12 10:52:57;;;;;;;10.60;5.00;;;;;;;11.63;87.36;99132.16;5014325;28;20026;-75
2021/10/12 10:55:27;;;;;;;10.60;5.57;;;;;;;11.81;84.60;99115.31;5012016;28;20036;-75
2021/10/12 10:58:09;;;;;;;11.65;5.25;;;;;;;11.74;85.62;99121.78;5012498;28;20394;-75
2021/10/12 11:00:51;;;;;;;11.63;5.68;;;;;;;11.89;85.72;99125.19;5012159;28;20030;-75
2021/10/12 11:03:25;;;;;;;14.05;5.65;;;;;;;12.04;85.77;99122.31;5012383;28;20053;-74
2021/10/12 11:05:52;;;;;;;21.05;6.13;;;;;;;11.61;85.46;99122.56;5012787;28;20120;-74
2021/10/12 11:08:20;;;;;;;15.32;6.10;;;;;;;11.88;84.87;99117.25;5015260;28;20056;-75
2021/10/12 11:11:00;;;;;;;13.23;5.55;;;;;;;11.43;85.60;99101.44;5010244;28;20026;-74
2021/10/12 11:13:33;;;;;;;16.63;5.78;;;;;;;11.97;85.11;99099.75;5012084;28;20065;-75
2021/10/12 11:16:01;;;;;;;10.20;5.45;;;;;;;11.83;83.50;99085.31;5027473;28;20434;-75
2021/10/12 11:18:26;;;;;;;12.40;6.03;;;;;;;12.24;82.55;99087.09;5012532;28;20026;-74
2021/10/12 11:20:56;;;;;;;14.05;6.53;;;;;;;12.44;82.79;99087.09;5015668;28;20028;-76